createdAt,value
2023-01-28T00:00:58.709Z,101067.00
2023-01-28T00:03:25.998Z,101069.00
2023-01-28T00:06:02.688Z,101057.00
2023-01-28T00:08:30.038Z,101066.00
2023-01-28T00:11:00.141Z,101071.00
2023-01-28T00:13:27.427Z,101065.00
2023-01-28T00:15:58.792Z,101066.00
2023-01-28T00:18:26.704Z,101064.00
2023-01-28T00:20:58.524Z,101059.00
2023-01-28T00:23:26.629Z,101066.00
2023-01-28T00:25:54.303Z,101066.00
2023-01-28T00:28:21.746Z,101072.00
2023-01-28T00:30:49.063Z,101072.00
2023-01-28T00:33:16.337Z,101071.00
2023-01-28T00:35:43.818Z,101070.00
2023-01-28T00:38:12.081Z,101070.00
2023-01-28T00:40:39.369Z,101078.00
2023-01-28T00:43:06.857Z,101070.00
2023-01-28T00:45:34.119Z,101078.00
2023-01-28T00:48:01.424Z,101068.00
2023-01-28T00:50:28.679Z,101071.00
2023-01-28T00:52:56.006Z,101066.00
2023-01-28T00:55:24.012Z,101074.00
2023-01-28T00:57:51.283Z,101070.00
2023-01-28T01:00:20.378Z,101071.00
2023-01-28T01:02:47.880Z,101077.00
2023-01-28T01:05:15.580Z,101072.00
2023-01-28T01:07:43.155Z,101068.00
2023-01-28T01:10:12.920Z,101083.00
2023-01-28T01:12:41.520Z,101085.00
2023-01-28T01:15:10.212Z,101074.00
2023-01-28T01:17:37.541Z,101089.00
2023-01-28T01:20:06.496Z,101085.00
2023-01-28T01:22:34.495Z,101088.00
2023-01-28T01:25:01.861Z,101083.00
2023-01-28T01:27:29.110Z,101087.00
2023-01-28T01:29:58.260Z,101089.00
2023-01-28T01:32:28.688Z,101090.00
2023-01-28T01:34:55.943Z,101091.00
2023-01-28T01:37:23.251Z,101091.00
2023-01-28T01:39:50.538Z,101080.00
2023-01-28T01:42:17.955Z,101088.00
2023-01-28T01:45:00.259Z,101093.00
2023-01-28T01:47:33.751Z,101068.00
2023-01-28T01:50:06.066Z,101085.00
2023-01-28T01:52:35.888Z,101089.00
2023-01-28T01:55:09.124Z,101080.00
2023-01-28T01:57:37.024Z,101082.00
2023-01-28T02:00:07.035Z,101086.00
2023-01-28T02:02:36.466Z,101083.00
2023-01-28T02:05:04.852Z,101083.00
2023-01-28T02:07:32.650Z,101082.00
2023-01-28T02:09:59.913Z,101082.00
2023-01-28T02:12:32.837Z,101079.00
2023-01-28T02:15:05.590Z,101084.00
2023-01-28T02:17:34.182Z,101080.00
2023-01-28T02:20:02.710Z,101077.00
2023-01-28T02:23:00.611Z,101092.00
2023-01-28T02:26:02.362Z,101084.00
2023-01-28T02:28:35.850Z,101085.00
2023-01-28T02:31:10.720Z,101094.00
2023-01-28T02:33:42.278Z,101101.00
2023-01-28T02:36:18.125Z,101096.00
2023-01-28T02:38:48.651Z,101104.00
2023-01-28T02:41:22.645Z,101096.00
2023-01-28T02:43:50.638Z,101102.00
2023-01-28T02:46:54.600Z,101105.00
2023-01-28T02:49:27.642Z,101104.00
2023-01-28T02:52:45.675Z,101094.00
2023-01-28T02:55:20.767Z,101112.00
2023-01-28T02:57:58.720Z,101118.00
2023-01-28T03:00:30.647Z,101117.00
2023-01-28T03:03:05.972Z,101092.00
2023-01-28T03:05:38.669Z,101096.00
2023-01-28T03:08:21.910Z,101110.00
2023-01-28T03:11:07.509Z,101116.00
2023-01-28T03:13:53.135Z,101111.00
2023-01-28T03:16:38.996Z,101115.00
2023-01-28T03:19:24.795Z,101122.00
2023-01-28T03:22:11.455Z,101120.00
2023-01-28T03:25:02.017Z,101117.00
2023-01-28T03:27:51.792Z,101121.00
2023-01-28T03:30:42.936Z,101127.00
2023-01-28T03:33:30.117Z,101121.00
2023-01-28T03:36:15.369Z,101122.00
2023-01-28T03:38:47.775Z,101122.00
2023-01-28T03:41:21.726Z,101128.00
2023-01-28T03:43:49.811Z,101134.00
2023-01-28T03:46:17.749Z,101125.00
2023-01-28T03:48:45.930Z,101128.00
2023-01-28T03:51:13.280Z,101134.00
2023-01-28T03:53:40.587Z,101137.00
2023-01-28T03:56:08.694Z,101141.00
2023-01-28T03:58:45.928Z,101140.00
2023-01-28T04:01:13.329Z,101152.00
2023-01-28T04:03:40.569Z,101150.00
2023-01-28T04:06:09.765Z,101160.00
2023-01-28T04:08:36.997Z,101148.00
2023-01-28T04:11:15.484Z,101162.00
2023-01-28T04:13:43.037Z,101155.00
2023-01-28T04:16:11.284Z,101170.00
2023-01-28T04:18:38.920Z,101152.00
2023-01-28T04:21:07.439Z,101161.00
2023-01-28T04:23:34.792Z,101158.00
2023-01-28T04:26:03.353Z,101155.00
2023-01-28T04:28:30.846Z,101170.00
2023-01-28T04:30:58.142Z,101157.00
2023-01-28T04:33:25.463Z,101155.00
2023-01-28T04:35:52.765Z,101168.00
2023-01-28T04:38:20.687Z,101168.00
2023-01-28T04:40:50.413Z,101167.00
2023-01-28T04:43:19.122Z,101163.00
2023-01-28T04:45:46.673Z,101173.00
2023-01-28T04:48:14.033Z,101170.00
2023-01-28T04:50:41.541Z,101168.00
2023-01-28T04:53:09.132Z,101167.00
2023-01-28T04:55:37.432Z,101177.00
2023-01-28T04:58:04.854Z,101177.00
2023-01-28T05:00:32.135Z,101182.00
2023-01-28T05:02:59.406Z,101187.00
2023-01-28T05:05:26.742Z,101186.00
2023-01-28T05:07:55.336Z,101187.00
2023-01-28T05:10:23.751Z,101190.00
2023-01-28T05:12:51.720Z,101190.00
2023-01-28T05:15:19.928Z,101178.00
2023-01-28T05:17:47.757Z,101192.00
2023-01-28T05:20:15.443Z,101194.00
2023-01-28T05:22:43.278Z,101191.00
2023-01-28T05:25:10.735Z,101198.00
2023-01-28T05:27:37.932Z,101202.00
2023-01-28T05:30:07.407Z,101197.00
2023-01-28T05:32:34.699Z,101212.00
2023-01-28T05:35:02.227Z,101210.00
2023-01-28T05:37:29.504Z,101208.00
2023-01-28T05:39:56.710Z,101215.00
2023-01-28T05:42:23.962Z,101211.00
2023-01-28T05:44:51.405Z,101227.00
2023-01-28T05:47:19.483Z,101219.00
2023-01-28T05:49:46.696Z,101227.00
2023-01-28T05:52:14.007Z,101226.00
2023-01-28T05:54:41.241Z,101242.00
2023-01-28T05:57:08.547Z,101246.00
2023-01-28T05:59:35.835Z,101247.00
2023-01-28T06:02:03.197Z,101248.00
2023-01-28T06:04:31.136Z,101251.00
2023-01-28T06:06:58.434Z,101256.00
2023-01-28T06:09:25.689Z,101262.00
2023-01-28T06:11:53.933Z,101248.00
2023-01-28T06:14:21.167Z,101256.00
2023-01-28T06:16:49.469Z,101268.00
2023-01-28T06:19:16.704Z,101263.00
2023-01-28T06:21:44.637Z,101270.00
2023-01-28T06:24:12.932Z,101269.00
2023-01-28T06:26:40.237Z,101281.00
2023-01-28T06:29:07.550Z,101269.00
2023-01-28T06:31:34.869Z,101277.00
2023-01-28T06:34:02.447Z,101276.00
2023-01-28T06:36:29.862Z,101281.00
2023-01-28T06:38:58.083Z,101285.00
2023-01-28T06:41:25.343Z,101286.00
2023-01-28T06:43:52.702Z,101292.00
2023-01-28T06:46:20.115Z,101293.00
2023-01-28T06:48:47.427Z,101297.00
2023-01-28T06:51:15.121Z,101306.00
2023-01-28T06:53:43.249Z,101302.00
2023-01-28T06:56:12.552Z,101304.00
2023-01-28T06:58:39.859Z,101302.00
2023-01-28T07:01:07.112Z,101305.00
2023-01-28T07:03:34.488Z,101307.00
2023-01-28T07:06:01.783Z,101302.00
2023-01-28T07:08:29.030Z,101306.00
2023-01-28T07:10:56.474Z,101305.00
2023-01-28T07:13:24.517Z,101318.00
2023-01-28T07:15:51.897Z,101316.00
2023-01-28T07:18:19.458Z,101324.00
2023-01-28T07:20:46.703Z,101321.00
2023-01-28T07:23:13.989Z,101326.00
2023-01-28T07:25:41.263Z,101324.00
2023-01-28T07:28:08.542Z,101317.00
2023-01-28T07:30:36.553Z,101319.00
2023-01-28T07:33:04.159Z,101316.00
2023-01-28T07:35:32.979Z,101311.00
2023-01-28T07:38:01.537Z,101317.00
2023-01-28T07:40:29.585Z,101330.00
2023-01-28T07:42:57.016Z,101329.00
2023-01-28T07:45:25.139Z,101324.00
2023-01-28T07:47:57.382Z,101321.00
2023-01-28T07:50:25.309Z,101327.00
2023-01-28T07:52:52.630Z,101323.00
2023-01-28T07:55:19.952Z,101319.00
2023-01-28T07:57:51.494Z,101325.00
2023-01-28T08:00:19.924Z,101321.00
2023-01-28T08:02:47.673Z,101323.00
2023-01-28T08:05:17.633Z,101320.00
2023-01-28T08:07:45.463Z,101313.00
2023-01-28T08:10:13.728Z,101317.00
2023-01-28T08:12:41.327Z,101322.00
2023-01-28T08:15:09.674Z,101326.00
2023-01-28T08:17:36.964Z,101331.00
2023-01-28T08:20:04.939Z,101325.00
2023-01-28T08:22:33.002Z,101324.00
2023-01-28T08:25:00.225Z,101320.00
2023-01-28T08:27:27.489Z,101328.00
2023-01-28T08:29:54.739Z,101324.00
2023-01-28T08:32:22.064Z,101330.00
2023-01-28T08:34:49.446Z,101331.00
2023-01-28T08:37:16.729Z,101336.00
2023-01-28T08:39:46.432Z,101334.00
2023-01-28T08:42:13.824Z,101340.00
2023-01-28T08:44:41.159Z,101348.00
2023-01-28T08:47:08.441Z,101335.00
2023-01-28T08:49:35.679Z,101344.00
2023-01-28T08:52:03.141Z,101334.00
2023-01-28T08:54:30.403Z,101340.00
2023-01-28T08:56:58.412Z,101348.00
2023-01-28T08:59:25.652Z,101352.00
2023-01-28T09:01:53.019Z,101360.00
2023-01-28T09:04:20.383Z,101370.00
2023-01-28T09:06:47.652Z,101373.00
2023-01-28T09:09:14.932Z,101368.00
2023-01-28T09:11:42.346Z,101369.00
2023-01-28T09:14:10.446Z,101373.00
2023-01-28T09:16:37.670Z,101359.00
2023-01-28T09:19:05.166Z,101358.00
2023-01-28T09:21:32.424Z,101375.00
2023-01-28T09:23:59.810Z,101368.00
2023-01-28T09:26:27.101Z,101371.00
2023-01-28T09:28:55.186Z,101378.00
2023-01-28T09:31:23.550Z,101372.00
2023-01-28T09:33:55.933Z,101383.00
2023-01-28T09:36:23.387Z,101373.00
2023-01-28T09:38:51.492Z,101376.00
2023-01-28T09:41:26.315Z,101373.00
2023-01-28T09:44:28.139Z,101385.00
2023-01-28T09:47:01.483Z,101384.00
2023-01-28T09:49:35.036Z,101385.00
2023-01-28T09:52:02.928Z,101376.00
2023-01-28T09:54:37.017Z,101371.00
2023-01-28T09:57:11.807Z,101379.00
2023-01-28T09:59:39.194Z,101377.00
2023-01-28T10:02:33.969Z,101371.00
2023-01-28T10:05:15.762Z,101381.00
2023-01-28T10:07:50.549Z,101398.00
2023-01-28T10:10:21.830Z,101383.00
2023-01-28T10:13:17.391Z,101389.00
2023-01-28T10:16:09.021Z,101394.00
2023-01-28T10:18:43.892Z,101390.00
2023-01-28T10:21:16.713Z,101396.00
2023-01-28T10:23:54.792Z,101388.00
2023-01-28T10:26:24.724Z,101398.00
2023-01-28T10:28:56.519Z,101392.00
2023-01-28T10:31:30.402Z,101399.00
2023-01-28T10:33:58.815Z,101402.00
2023-01-28T10:36:26.387Z,101406.00
2023-01-28T10:38:53.696Z,101413.00
2023-01-28T10:41:22.652Z,101413.00
2023-01-28T10:43:50.458Z,101404.00
2023-01-28T10:46:22.332Z,101414.00
2023-01-28T10:48:56.377Z,101409.00
2023-01-28T10:51:34.107Z,101421.00
2023-01-28T10:54:01.785Z,101418.00
2023-01-28T10:56:32.075Z,101412.00
2023-01-28T10:59:02.765Z,101417.00
2023-01-28T11:01:45.216Z,101412.00
2023-01-28T11:04:21.915Z,101411.00
2023-01-28T11:06:59.044Z,101410.00
2023-01-28T11:09:28.708Z,101404.00
2023-01-28T11:11:56.193Z,101414.00
2023-01-28T11:14:25.615Z,101406.00
2023-01-28T11:16:58.813Z,101405.00
2023-01-28T11:19:33.797Z,101397.00
2023-01-28T11:22:05.010Z,101400.00
2023-01-28T11:24:34.378Z,101405.00
2023-01-28T11:27:17.514Z,101412.00
2023-01-28T11:29:45.316Z,101403.00
2023-01-28T11:32:20.437Z,101401.00
2023-01-28T11:34:52.643Z,101396.00
2023-01-28T11:37:23.690Z,101394.00
2023-01-28T11:40:01.990Z,101388.00
2023-01-28T11:42:30.114Z,101386.00
2023-01-28T11:44:57.481Z,101379.00
2023-01-28T11:47:38.422Z,101387.00
2023-01-28T11:50:27.368Z,101382.00
2023-01-28T11:53:35.175Z,101375.00
2023-01-28T11:56:14.710Z,101373.00
2023-01-28T11:58:48.657Z,101383.00
2023-01-28T12:01:28.680Z,101387.00
2023-01-28T12:04:25.347Z,101376.00
2023-01-28T12:07:16.238Z,101379.00
2023-01-28T12:09:54.101Z,101364.00
2023-01-28T12:12:56.382Z,101361.00
2023-01-28T12:15:48.539Z,101375.00
2023-01-28T12:18:37.972Z,101369.00
2023-01-28T12:21:08.684Z,101367.00
2023-01-28T12:23:59.513Z,101374.00
2023-01-28T12:26:35.011Z,101365.00
2023-01-28T12:29:18.394Z,101367.00
2023-01-28T12:32:06.609Z,101364.00
2023-01-28T12:35:11.911Z,101368.00
2023-01-28T12:37:52.614Z,101351.00
2023-01-28T12:40:45.771Z,101360.00
2023-01-28T12:43:20.783Z,101352.00
2023-01-28T12:45:53.365Z,101358.00
2023-01-28T12:48:30.474Z,101357.00
2023-01-28T12:51:03.349Z,101359.00
2023-01-28T12:53:37.817Z,101359.00
2023-01-28T12:56:14.989Z,101356.00
2023-01-28T12:58:49.543Z,101351.00
2023-01-28T13:01:23.943Z,101348.00
2023-01-28T13:03:55.901Z,101357.00
2023-01-28T13:06:29.741Z,101345.00
2023-01-28T13:09:01.727Z,101350.00
2023-01-28T13:11:35.668Z,101349.00
2023-01-28T13:14:05.474Z,101355.00
2023-01-28T13:16:37.821Z,101350.00
2023-01-28T13:19:08.210Z,101367.00
2023-01-28T13:21:47.414Z,101359.00
2023-01-28T13:24:34.923Z,101358.00
2023-01-28T13:27:12.985Z,101360.00
2023-01-28T13:29:40.300Z,101360.00
2023-01-28T13:32:29.091Z,101364.00
2023-01-28T13:35:02.349Z,101352.00
2023-01-28T13:37:33.577Z,101350.00
2023-01-28T13:40:06.632Z,101369.00
2023-01-28T13:42:34.631Z,101362.00
2023-01-28T13:45:23.275Z,101361.00
2023-01-28T13:47:55.858Z,101373.00
2023-01-28T13:50:25.517Z,101371.00
2023-01-28T13:52:57.901Z,101365.00
2023-01-28T13:55:42.665Z,101378.00
2023-01-28T13:58:50.591Z,101374.00
2023-01-28T14:01:42.788Z,101382.00
2023-01-28T14:04:35.554Z,101399.00
2023-01-28T14:07:34.351Z,101400.00
2023-01-28T14:10:34.100Z,101396.00
2023-01-28T14:13:33.644Z,101394.00
2023-01-28T14:16:20.154Z,101394.00
2023-01-28T14:18:49.555Z,101406.00
2023-01-28T14:21:21.324Z,101398.00
2023-01-28T14:23:51.497Z,101398.00
2023-01-28T14:26:32.271Z,101388.00
2023-01-28T14:29:14.050Z,101393.00
2023-01-28T14:31:41.876Z,101384.00
2023-01-28T14:34:19.702Z,101389.00
2023-01-28T14:36:49.681Z,101393.00
2023-01-28T14:39:19.588Z,101393.00
2023-01-28T14:41:49.583Z,101389.00
2023-01-28T14:44:27.937Z,101378.00
2023-01-28T14:47:18.551Z,101385.00
2023-01-28T14:50:00.602Z,101372.00
2023-01-28T14:52:54.012Z,101379.00
2023-01-28T14:55:33.874Z,101378.00
2023-01-28T14:58:04.492Z,101380.00
2023-01-28T15:00:34.095Z,101374.00
2023-01-28T15:03:23.221Z,101373.00
2023-01-28T15:06:05.719Z,101377.00
2023-01-28T15:08:35.116Z,101384.00
2023-01-28T15:11:02.993Z,101387.00
2023-01-28T15:13:33.605Z,101373.00
2023-01-28T15:16:08.065Z,101376.00
2023-01-28T15:18:37.826Z,101365.00
2023-01-28T15:21:05.411Z,101373.00
2023-01-28T15:23:34.880Z,101385.00
2023-01-28T15:26:06.285Z,101381.00
2023-01-28T15:28:36.609Z,101378.00
2023-01-28T15:31:04.182Z,101376.00
2023-01-28T15:33:32.280Z,101376.00
2023-01-28T15:36:00.020Z,101364.00
2023-01-28T15:38:28.734Z,101363.00
2023-01-28T15:40:58.156Z,101357.00
2023-01-28T15:43:27.804Z,101362.00
2023-01-28T15:45:56.646Z,101351.00
2023-01-28T15:48:26.336Z,101363.00
2023-01-28T15:51:00.946Z,101357.00
2023-01-28T15:53:36.209Z,101352.00
2023-01-28T15:56:09.037Z,101355.00
2023-01-28T15:58:40.588Z,101350.00
2023-01-28T16:01:16.337Z,101336.00
2023-01-28T16:03:45.761Z,101340.00
2023-01-28T16:06:17.386Z,101344.00
2023-01-28T16:08:51.609Z,101362.00
2023-01-28T16:11:24.695Z,101358.00
2023-01-28T16:13:52.695Z,101360.00
2023-01-28T16:16:28.178Z,101359.00
2023-01-28T16:18:56.023Z,101364.00
2023-01-28T16:21:26.128Z,101352.00
2023-01-28T16:23:59.062Z,101376.00
2023-01-28T16:26:28.879Z,101373.00
2023-01-28T16:28:56.311Z,101370.00
2023-01-28T16:31:23.837Z,101374.00
2023-01-28T16:33:51.184Z,101365.00
2023-01-28T16:36:18.881Z,101362.00
2023-01-28T16:38:47.115Z,101365.00
2023-01-28T16:41:18.483Z,101368.00
2023-01-28T16:43:45.845Z,101352.00
2023-01-28T16:46:13.345Z,101358.00
2023-01-28T16:48:40.770Z,101357.00
2023-01-28T16:51:15.422Z,101359.00
2023-01-28T16:53:43.145Z,101364.00
2023-01-28T16:56:30.356Z,101360.00
2023-01-28T16:59:02.113Z,101380.00
2023-01-28T17:01:29.482Z,101371.00
2023-01-28T17:03:56.908Z,101371.00
2023-01-28T17:06:24.321Z,101379.00
2023-01-28T17:08:51.632Z,101381.00
2023-01-28T17:11:19.621Z,101383.00
2023-01-28T17:13:46.930Z,101383.00
2023-01-28T17:16:14.276Z,101379.00
2023-01-28T17:18:41.618Z,101397.00
2023-01-28T17:21:10.000Z,101409.00
2023-01-28T17:23:37.405Z,101405.00
2023-01-28T17:26:05.764Z,101415.00
2023-01-28T17:28:33.973Z,101414.00
2023-01-28T17:31:04.943Z,101423.00
2023-01-28T17:33:32.278Z,101426.00
2023-01-28T17:36:01.074Z,101422.00
2023-01-28T17:38:28.521Z,101423.00
2023-01-28T17:41:00.404Z,101421.00
2023-01-28T17:43:27.746Z,101421.00
2023-01-28T17:45:55.945Z,101428.00
2023-01-28T17:48:23.418Z,101424.00
2023-01-28T17:50:50.760Z,101427.00
2023-01-28T17:53:18.059Z,101415.00
2023-01-28T17:55:45.581Z,101414.00
2023-01-28T17:58:12.828Z,101417.00
2023-01-28T18:00:40.170Z,101409.00
2023-01-28T18:03:11.585Z,101410.00
2023-01-28T18:05:39.053Z,101411.00
2023-01-28T18:08:07.109Z,101412.00
2023-01-28T18:10:34.713Z,101410.00
2023-01-28T18:13:02.072Z,101419.00
2023-01-28T18:15:29.386Z,101423.00
2023-01-28T18:17:56.628Z,101429.00
2023-01-28T18:20:24.753Z,101427.00
2023-01-28T18:22:52.026Z,101423.00
2023-01-28T18:25:20.045Z,101418.00
2023-01-28T18:27:47.477Z,101435.00
2023-01-28T18:30:15.672Z,101446.00
2023-01-28T18:32:42.984Z,101443.00
2023-01-28T18:35:12.346Z,101426.00
2023-01-28T18:37:40.831Z,101437.00
2023-01-28T18:40:09.193Z,101457.00
2023-01-28T18:42:37.150Z,101466.00
2023-01-28T18:45:05.666Z,101479.00
2023-01-28T18:47:32.972Z,101480.00
2023-01-28T18:50:00.327Z,101487.00
2023-01-28T18:52:27.921Z,101491.00
2023-01-28T18:54:56.895Z,101497.00
2023-01-28T18:57:24.362Z,101501.00
2023-01-28T18:59:51.620Z,101503.00
2023-01-28T19:02:18.968Z,101512.00
2023-01-28T19:04:46.393Z,101514.00
2023-01-28T19:07:13.694Z,101515.00
2023-01-28T19:09:40.958Z,101518.00
2023-01-28T19:12:09.028Z,101510.00
2023-01-28T19:14:36.437Z,101506.00
2023-01-28T19:17:04.063Z,101512.00
2023-01-28T19:19:31.478Z,101508.00
2023-01-28T19:21:58.811Z,101512.00
2023-01-28T19:24:26.747Z,101508.00
2023-01-28T19:26:54.198Z,101503.00
2023-01-28T19:29:24.831Z,101497.00
2023-01-28T19:31:52.168Z,101498.00
2023-01-28T19:34:19.493Z,101499.00
2023-01-28T19:36:46.825Z,101485.00
2023-01-28T19:39:15.360Z,101479.00
2023-01-28T19:41:43.891Z,101479.00
2023-01-28T19:44:11.756Z,101482.00
2023-01-28T19:46:40.753Z,101471.00
2023-01-28T19:49:09.944Z,101471.00
2023-01-28T19:51:37.330Z,101469.00
2023-01-28T19:54:04.803Z,101478.00
2023-01-28T19:56:35.355Z,101467.00
2023-01-28T19:59:02.865Z,101467.00
2023-01-28T20:01:30.836Z,101449.00
2023-01-28T20:04:00.243Z,101458.00
2023-01-28T20:06:28.916Z,101465.00
2023-01-28T20:08:58.599Z,101476.00
2023-01-28T20:11:26.069Z,101482.00
2023-01-28T20:13:54.376Z,101467.00
2023-01-28T20:16:23.565Z,101453.00
2023-01-28T20:18:52.227Z,101444.00
2023-01-28T20:21:21.077Z,101423.00
2023-01-28T20:23:49.693Z,101432.00
2023-01-28T20:26:20.393Z,101444.00
2023-01-28T20:28:48.011Z,101424.00
2023-01-28T20:31:15.930Z,101435.00
2023-01-28T20:33:43.470Z,101428.00
2023-01-28T20:36:13.787Z,101433.00
2023-01-28T20:38:44.510Z,101428.00
2023-01-28T20:41:14.105Z,101436.00
2023-01-28T20:43:43.674Z,101445.00
2023-01-28T20:46:13.820Z,101441.00
2023-01-28T20:48:41.357Z,101442.00
2023-01-28T20:51:10.520Z,101446.00
2023-01-28T20:53:38.176Z,101447.00
2023-01-28T20:56:07.619Z,101432.00
2023-01-28T20:58:35.573Z,101455.00
2023-01-28T21:01:03.499Z,101449.00
2023-01-28T21:03:30.851Z,101453.00
2023-01-28T21:05:58.187Z,101462.00
2023-01-28T21:08:25.553Z,101461.00
2023-01-28T21:10:52.835Z,101472.00
2023-01-28T21:13:20.821Z,101463.00
2023-01-28T21:15:52.697Z,101472.00
2023-01-28T21:18:20.144Z,101473.00
2023-01-28T21:20:47.493Z,101470.00
2023-01-28T21:23:15.232Z,101471.00
2023-01-28T21:25:42.823Z,101476.00
2023-01-28T21:28:11.902Z,101472.00
2023-01-28T21:30:40.343Z,101493.00
2023-01-28T21:33:08.475Z,101489.00
2023-01-28T21:35:37.627Z,101496.00
2023-01-28T21:38:05.217Z,101484.00
2023-01-28T21:40:33.165Z,101476.00
2023-01-28T21:43:00.782Z,101478.00
2023-01-28T21:45:28.571Z,101485.00
2023-01-28T21:47:56.567Z,101470.00
2023-01-28T21:50:24.165Z,101473.00
2023-01-28T21:52:51.908Z,101472.00
2023-01-28T21:55:19.544Z,101468.00
2023-01-28T21:57:46.854Z,101471.00
2023-01-28T22:00:15.096Z,101465.00
2023-01-28T22:02:42.935Z,101465.00
2023-01-28T22:05:10.933Z,101466.00
2023-01-28T22:07:38.582Z,101469.00
2023-01-28T22:10:06.603Z,101479.00
2023-01-28T22:12:33.911Z,101477.00
2023-01-28T22:15:01.172Z,101476.00
2023-01-28T22:17:28.843Z,101461.00
2023-01-28T22:19:56.210Z,101461.00
2023-01-28T22:22:24.336Z,101463.00
2023-01-28T22:24:51.596Z,101463.00
2023-01-28T22:27:18.843Z,101470.00
2023-01-28T22:29:46.187Z,101465.00
2023-01-28T22:32:13.497Z,101464.00
2023-01-28T22:34:40.784Z,101460.00
2023-01-28T22:37:09.712Z,101455.00
2023-01-28T22:39:37.748Z,101444.00
2023-01-28T22:42:05.353Z,101454.00
2023-01-28T22:44:32.710Z,101437.00
2023-01-28T22:47:00.003Z,101450.00
2023-01-28T22:49:27.311Z,101448.00
2023-01-28T22:51:55.342Z,101448.00
2023-01-28T22:54:22.647Z,101448.00
2023-01-28T22:56:50.588Z,101449.00
2023-01-28T22:59:18.005Z,101446.00
2023-01-28T23:01:46.483Z,101457.00
2023-01-28T23:04:13.847Z,101454.00
2023-01-28T23:06:41.120Z,101453.00
2023-01-28T23:09:08.611Z,101459.00
2023-01-28T23:11:35.921Z,101461.00
2023-01-28T23:14:22.267Z,101452.00
2023-01-28T23:17:08.157Z,101449.00
2023-01-28T23:19:54.109Z,101448.00
2023-01-28T23:22:42.576Z,101439.00
2023-01-28T23:25:10.760Z,101440.00
2023-01-28T23:27:38.193Z,101439.00
2023-01-28T23:30:09.240Z,101445.00
2023-01-28T23:32:36.969Z,101427.00
2023-01-28T23:35:04.939Z,101441.00
2023-01-28T23:37:32.231Z,101440.00
2023-01-28T23:39:59.596Z,101447.00
2023-01-28T23:42:26.867Z,101436.00
2023-01-28T23:44:54.121Z,101435.00
2023-01-28T23:47:22.067Z,101445.00
2023-01-28T23:49:49.306Z,101436.00
2023-01-28T23:52:16.805Z,101439.00
2023-01-28T23:54:44.087Z,101429.00
2023-01-28T23:57:11.354Z,101435.00
2023-01-28T23:59:38.651Z,101415.00
